Time;durP1;ratioP1;P1;durP2;ratioP2;P2;SDS_P1;SDS_P2;PMS_P1;PMS_P2;Temp;Humidity;BMP_temperature;BMP_pressure;BME280_temperature;BME280_humidity;BME280_pressure;Samples;Min_cycle;Max_cycle;Signal;HPM_P1;HPM_P2
2022/02/09 00:00:15;;;;;;;;;12.50;9.00;;;;;8.18;77.66;100346.03;6317264;20;2766033;-49
2022/02/09 00:05:43;;;;;;;;;14.00;13.00;;;;;8.26;77.36;100349.25;6284719;20;2813954;-50
2022/02/09 00:08:12;;;;;;;;;9.25;8.00;;;;;8.28;76.41;100352.75;6305572;20;1812985;-46
2022/02/09 00:10:43;;;;;;;;;13.00;11.00;;;;;8.16;76.57;100364.78;6316631;20;2787898;-48
2022/02/09 00:19:07;;;;;;;;;9.40;8.60;;;;;8.25;75.64;100371.59;6306931;20;2748218;-46
2022/02/09 00:40:10;;;;;;;;;10.50;8.00;;;;;7.83;77.38;100388.44;6283721;20;2747123;-48
2022/02/09 01:56:36;;;;;;;;;7.50;7.50;;;;;7.77;80.05;100447.47;6301250;20;1805605;-46
2022/02/09 01:59:04;;;;;;;;;11.50;9.00;;;;;7.81;79.59;100443.75;6316337;20;2746103;-47
2022/02/09 02:01:34;;;;;;;;;10.50;8.00;;;;;7.88;79.44;100447.94;6316161;20;2769134;-47
2022/02/09 02:04:04;;;;;;;;;11.20;11.20;;;;;7.78;79.63;100454.56;6306687;20;2796173;-47
2022/02/09 02:06:34;;;;;;;;;9.00;9.00;;;;;7.76;79.59;100457.28;6282472;20;2755492;-46
2022/02/09 02:09:04;;;;;;;;;11.00;10.00;;;;;7.66;80.04;100456.78;6283372;20;2783670;-47
2022/02/09 02:11:46;;;;;;;;;10.00;10.00;;;;;7.63;80.52;100446.16;6283396;20;2789836;-46
2022/02/09 02:14:23;;;;;;;;;12.00;9.50;;;;;7.65;80.59;100449.66;6282050;20;2781990;-46
2022/02/09 03:12:17;;;;;;;;;10.50;7.50;;;;;7.52;82.74;100448.38;6316003;20;2763003;-46
2022/02/09 03:15:00;;;;;;;;;12.14;9.43;;;;;7.56;82.47;100452.69;6321790;20;1821267;-47
2022/02/09 03:17:35;;;;;;;;;12.50;10.00;;;;;7.45;82.87;100457.53;6313513;20;2784767;-44
2022/02/09 03:20:17;;;;;;;;;12.00;10.00;;;;;7.39;83.14;100465.78;6285786;20;2778513;-45
2022/02/09 03:23:01;;;;;;;;;11.00;11.00;;;;;7.48;83.05;100452.09;6284290;20;2772289;-45
2022/02/09 03:26:19;;;;;;;;;12.00;8.00;;;;;7.51;83.09;100454.66;6300709;20;1818114;-46
2022/02/09 03:31:33;;;;;;;;;11.00;10.50;;;;;7.40;83.47;100451.53;6315946;20;2788856;-46
2022/02/09 03:58:23;;;;;;;;;8.50;7.00;;;;;7.64;85.03;100453.28;6318232;20;2748196;-45
2022/02/09 04:00:54;;;;;;;;;12.80;11.00;;;;;7.78;85.29;100450.09;6310043;20;2802421;-46
2022/02/09 04:03:23;;;;;;;;;14.00;11.00;;;;;7.74;83.48;100463.59;6288324;20;2791928;-45
2022/02/09 04:05:51;;;;;;;;;11.00;9.00;;;;;7.56;83.33;100449.16;6290594;20;2714893;-46
2022/02/09 04:08:26;;;;;;;;;12.00;11.00;;;;;7.89;84.23;100452.34;6315709;20;2787777;-46
2022/02/09 04:11:07;;;;;;;;;11.00;10.00;;;;;7.46;82.72;100459.31;6308241;20;2789835;-47
2022/02/09 04:16:21;;;;;;;;;13.00;8.00;;;;;7.50;83.30;100460.03;6316095;20;2765886;-46
2022/02/09 04:43:53;;;;;;;;;10.00;8.00;;;;;7.29;84.40;100483.06;6286123;20;2751299;-46
2022/02/09 04:54:32;;;;;;;;;9.60;9.40;;;;;7.32;84.86;100469.59;6337569;20;2776520;-48
2022/02/09 04:57:07;;;;;;;;;10.00;10.00;;;;;7.23;84.86;100474.34;6282024;20;2783629;-45
2022/02/09 05:24:36;;;;;;;;;14.00;11.00;;;;;7.45;85.78;100474.47;6314502;20;2789968;-46
2022/02/09 05:27:19;;;;;;;;;12.20;10.40;;;;;7.48;85.43;100470.81;6311974;20;2774355;-47
2022/02/09 05:29:49;;;;;;;;;7.50;7.00;;;;;7.34;84.63;100471.28;6328706;20;1800295;-46
2022/02/09 05:32:18;;;;;;;;;14.33;12.00;;;;;7.34;84.53;100473.94;6285872;20;2791004;-45
2022/02/09 05:34:46;;;;;;;;;13.50;12.00;;;;;7.27;84.79;100485.81;6314982;20;2789822;-47
2022/02/09 05:37:13;;;;;;;;;9.00;8.00;;;;;7.28;84.76;100484.00;6287974;20;2746083;-46
2022/02/09 05:39:41;;;;;;;;;12.50;8.50;;;;;7.19;84.94;100496.75;6287441;20;2764888;-46
2022/02/09 05:42:10;;;;;;;;;12.00;11.00;;;;;7.34;84.63;100497.13;6285639;20;2796092;-45
2022/02/09 05:44:39;;;;;;;;;11.00;11.00;;;;;7.02;84.95;100496.44;6309791;20;2787789;-46
2022/02/09 05:52:20;;;;;;;;;9.50;8.00;;;;;7.23;85.42;100500.19;6288925;20;2756532;-47
2022/02/09 05:59:52;;;;;;;;;10.29;9.43;;;;;7.21;84.79;100513.59;6329989;20;1800300;-46
2022/02/09 06:02:21;;;;;;;;;12.00;11.00;;;;;7.29;84.82;100504.44;6316896;20;2786693;-46
2022/02/09 06:04:49;;;;;;;;;9.50;9.50;;;;;7.09;85.33;100507.81;6285433;20;2765989;-45
2022/02/09 06:07:20;;;;;;;;;15.80;11.00;;;;;7.26;84.93;100511.63;6312388;20;2794006;-46
2022/02/09 06:09:48;;;;;;;;;12.00;11.00;;;;;7.18;85.42;100519.03;6285006;20;2767440;-45
2022/02/09 06:12:23;;;;;;;;;14.00;10.00;;;;;7.09;85.57;100524.69;6286712;20;2784738;-45
2022/02/09 06:20:24;;;;;;;;;10.50;10.50;;;;;7.33;85.93;100539.00;6286262;20;2792094;-45
2022/02/09 06:22:52;;;;;;;;;14.50;12.00;;;;;7.69;86.51;100523.47;6284966;20;2801327;-48
2022/02/09 06:25:23;;;;;;;;;13.60;11.20;;;;;7.69;85.28;100534.16;6310273;20;2789859;-46
2022/02/09 06:27:54;;;;;;;;;9.20;9.20;;;;;7.62;83.89;100535.31;6312635;20;2765976;-46
2022/02/09 06:30:22;;;;;;;;;16.00;12.00;;;;;7.76;84.11;100537.47;6316994;20;2796114;-45
2022/02/09 06:32:50;;;;;;;;;13.00;13.00;;;;;7.88;83.27;100542.38;6286213;20;2795142;-49
2022/02/09 06:35:19;;;;;;;;;16.00;16.00;;;;;8.18;81.83;100557.34;6316452;20;2831616;-48
2022/02/09 06:37:48;;;;;;;;;12.00;11.00;;;;;8.00;82.54;100553.53;6284626;20;2790955;-46
2022/02/09 06:40:19;;;;;;;;;12.33;11.00;;;;;8.18;81.45;100565.38;6316219;20;3524183;-46
2022/02/09 06:42:50;;;;;;;;;12.29;10.00;;;;;8.09;82.03;100571.94;6356332;20;1812768;-46
2022/02/09 06:45:21;;;;;;;;;12.80;9.40;;;;;8.81;79.89;100582.56;6341122;20;2782562;-47
2022/02/09 06:47:50;;;;;;;;;13.50;13.00;;;;;9.00;78.33;100578.25;6293177;20;2801310;-51
2022/02/09 06:50:37;;;;;;;;;13.00;12.00;;;;;8.69;78.88;100577.69;6291529;20;2782568;-50
2022/02/09 06:53:30;;;;;;;;;12.50;12.50;;;;;8.61;79.97;100590.50;6291401;20;2791937;-47
2022/02/09 06:56:02;;;;;;;;;15.00;13.00;;;;;8.62;80.25;100592.28;6289679;20;2791979;-51
2022/02/09 07:01:08;;;;;;;;;12.50;11.00;;;;;8.17;81.63;100599.28;6287329;20;2792001;-47
2022/02/09 07:03:36;;;;;;;;;12.50;12.00;;;;;8.76;80.19;100600.63;6291821;20;2799263;-46
2022/02/09 07:06:06;;;;;;;;;14.50;10.50;;;;;9.71;76.70;100602.03;6287329;20;2794149;-45
2022/02/09 07:08:34;;;;;;;;;11.50;9.00;;;;;10.50;72.68;100602.13;6293513;20;2770198;-47
2022/02/09 07:11:04;;;;;;;;;12.50;10.00;;;;;10.06;73.71;100600.50;6289184;20;2786780;-49
2022/02/09 07:13:32;;;;;;;;;12.50;10.50;;;;;11.13;70.88;100602.66;6292251;20;2782356;-49
2022/02/09 07:16:05;;;;;;;;;10.60;7.20;;;;;10.97;69.99;100607.94;6325919;20;2755564;-48
2022/02/09 07:18:33;;;;;;;;;8.00;4.00;;;;;11.22;69.55;100620.19;6290583;20;2748188;-47
2022/02/09 07:21:12;;;;;;;;;13.60;10.80;;;;;10.50;73.67;100624.47;6313047;20;2789884;-49
2022/02/09 07:23:45;;;;;;;;;8.00;8.00;;;;;10.13;73.62;100625.25;6292981;20;2730527;-51
2022/02/09 07:26:17;;;;;;;;;10.00;10.00;;;;;9.67;75.22;100619.22;6320307;20;2788841;-52
2022/02/09 07:28:47;;;;;;;;;9.00;9.00;;;;;9.93;76.94;100628.81;6294261;20;2742020;-49
2022/02/09 07:31:15;;;;;;;;;14.00;9.00;;;;;9.42;75.85;100617.56;6321010;20;2769110;-50
2022/02/09 07:33:47;;;;;;;;;10.60;10.60;;;;;9.42;77.10;100612.19;6313175;20;2779483;-46
2022/02/09 07:36:17;;;;;;;;;10.60;10.60;;;;;9.32;77.41;100608.19;6313585;20;2786729;-49
2022/02/09 07:38:45;;;;;;;;;14.00;11.00;;;;;9.54;76.35;100618.00;6293588;20;2798319;-46
2022/02/09 07:41:15;;;;;;;;;13.40;10.00;;;;;9.78;74.93;100621.44;6314724;20;2791004;-46
2022/02/09 07:44:02;;;;;;;;;15.00;13.00;;;;;9.70;75.75;100620.91;6291833;20;2680045;-46
2022/02/09 07:46:41;;;;;;;;;15.33;14.33;;;;;10.08;74.36;100621.91;6284937;20;2808581;-49
2022/02/09 07:54:25;;;;;;;;;15.40;14.40;;;;;10.05;74.39;100612.16;6343583;20;2800687;-45
2022/02/09 07:56:54;;;;;;;;;12.00;10.00;;;;;9.77;75.60;100622.34;6289126;20;2789943;-47
2022/02/09 07:59:22;;;;;;;;;13.00;9.50;;;;;9.71;75.86;100610.09;6293440;20;2781523;-45
2022/02/09 08:01:51;;;;;;;;;8.50;7.00;;;;;9.78;75.13;100608.91;6292881;20;2737752;-46
2022/02/09 08:04:20;;;;;;;;;11.60;9.80;;;;;9.75;75.57;100614.41;6341232;20;2776304;-47
2022/02/09 08:06:51;;;;;;;;;10.80;10.00;;;;;9.97;75.30;100608.09;6314351;20;2784655;-46
2022/02/09 08:09:40;;;;;;;;;14.00;10.00;;;;;10.22;74.12;100613.25;6289977;20;2789838;-46
2022/02/09 08:28:51;;;;;;;;;9.00;9.00;;;;;10.70;73.04;100623.56;6333793;20;1800265;-46
2022/02/09 08:33:47;;;;;;;;;14.33;11.00;;;;;11.17;71.73;100620.41;6287841;20;2786736;-46
2022/02/09 08:36:17;;;;;;;;;14.00;12.50;;;;;11.43;71.48;100621.81;6319168;20;2804412;-47
2022/02/09 08:38:45;;;;;;;;;11.00;11.00;;;;;11.21;71.10;100621.97;6288079;20;2785720;-47
2022/02/09 08:41:14;;;;;;;;;8.00;8.00;;;;;11.18;70.15;100627.50;6295071;20;2731535;-48
2022/02/09 08:43:42;;;;;;;;;9.00;5.00;;;;;11.44;69.78;100630.72;6290693;20;2745153;-47
2022/02/09 08:46:17;;;;;;;;;10.50;10.50;;;;;11.45;69.66;100616.31;6284382;20;2789867;-46
2022/02/09 08:48:47;;;;;;;;;16.00;12.00;;;;;11.47;70.07;100629.72;6286735;20;2806683;-48
2022/02/09 08:51:15;;;;;;;;;14.00;14.00;;;;;11.75;68.56;100630.06;6316957;20;2794098;-46
2022/02/09 08:53:44;;;;;;;;;14.00;11.33;;;;;11.88;68.28;100622.25;6317754;20;2788933;-47
2022/02/09 08:56:11;;;;;;;;;8.50;8.00;;;;;11.80;68.38;100625.31;6320775;20;2735660;-46
2022/02/09 08:58:40;;;;;;;;;6.00;4.00;;;;;11.40;68.79;100623.75;6291516;20;2756623;-47
2022/02/09 09:01:22;;;;;;;;;11.60;10.40;;;;;11.52;68.99;100625.84;6311560;20;2794011;-47
2022/02/09 09:03:54;;;;;;;;;8.00;8.00;;;;;11.69;68.76;100621.41;6292977;20;2746220;-47
2022/02/09 09:06:25;;;;;;;;;6.00;5.00;;;;;11.84;68.41;100628.69;6289804;20;2733622;-47
2022/02/09 09:17:19;;;;;;;;;9.00;7.00;;;;;11.95;67.96;100623.66;6287591;20;2747134;-46
2022/02/09 10:33:14;;;;;;;;;4.00;3.00;;;;;12.83;63.92;100595.56;6335330;20;1803338;-46
2022/02/09 10:38:35;;;;;;;;;6.50;5.00;;;;;13.42;64.28;100594.94;6319277;20;2750281;-46
2022/02/09 10:41:28;;;;;;;;;28.67;22.00;;;;;13.23;63.01;100597.81;6281864;20;3585682;-46
2022/02/09 10:44:09;;;;;;;;;5.00;5.00;;;;;13.49;62.69;100593.63;6288821;20;2745068;-50
2022/02/09 10:46:57;;;;;;;;;10.50;7.50;;;;;13.53;63.78;100597.84;6286593;20;2744016;-47
2022/02/09 10:49:30;;;;;;;;;5.00;5.00;;;;;13.37;62.58;100595.19;6287534;20;2748267;-47
2022/02/09 10:54:29;;;;;;;;;7.00;5.00;;;;;13.32;62.20;100605.38;6288010;20;2738816;-48
2022/02/09 10:57:04;;;;;;;;;4.00;4.00;;;;;13.38;62.01;100595.13;6287616;20;2751293;-45
2022/02/09 10:59:37;;;;;;;;;20.67;18.00;;;;;13.23;62.28;100598.66;6285768;20;3562742;-46
2022/02/09 11:02:09;;;;;;;;;17.00;13.20;;;;;12.91;63.30;100593.28;6311584;20;2805561;-45
2022/02/09 11:04:40;;;;;;;;;24.00;17.00;;;;;13.38;61.64;100594.25;6280161;20;2500326;-46
2022/02/09 11:07:09;;;;;;;;;4.00;4.00;;;;;13.46;61.94;100593.81;6286149;20;2753497;-46
2022/02/09 11:09:37;;;;;;;;;13.33;10.67;;;;;13.53;61.26;100595.16;6281801;20;3515994;-46
2022/02/09 11:12:07;;;;;;;;;25.00;18.00;;;;;13.69;60.63;100593.31;6314390;20;2833682;-47
2022/02/09 11:14:34;;;;;;;;;3.00;3.00;;;;;13.49;60.80;100572.91;6286127;20;2732660;-46
2022/02/09 11:17:04;;;;;;;;;2.00;2.00;;;;;13.48;61.18;100581.97;6292790;20;2744027;-48
2022/02/09 11:19:39;;;;;;;;;8.50;5.00;;;;;13.76;60.37;100583.00;6284630;20;2750257;-48
2022/02/09 11:22:16;;;;;;;;;3.00;2.00;;;;;13.71;60.55;100577.88;6283692;20;2752369;-47
2022/02/09 11:24:46;;;;;;;;;2.00;2.00;;;;;13.34;60.29;100576.50;6288984;20;2738962;-46
2022/02/09 11:27:27;;;;;;;;;4.00;4.00;;;;;13.57;60.25;100576.00;6283825;20;2756531;-47
2022/02/09 11:36:09;;;;;;;;;3.00;3.00;;;;;14.26;59.00;100571.75;6292614;20;2752363;-46
2022/02/09 11:38:46;;;;;;;;;6.00;4.50;;;;;14.18;58.93;100562.41;6289514;20;2751295;-46
2022/02/09 11:41:23;;;;;;;;;6.50;5.00;;;;;14.17;59.71;100568.78;6293922;20;2748187;-49
2022/02/09 12:01:37;;;;;;;;;4.00;4.00;;;;;14.58;57.03;100566.19;6293077;20;2746081;-47
2022/02/09 12:12:18;;;;;;;;;6.00;4.50;;;;;14.73;57.32;100566.19;6290652;20;2750411;-48
2022/02/09 12:20:31;;;;;;;;;3.00;3.00;;;;;14.62;56.95;100581.25;6295018;20;2735714;-47
2022/02/09 12:25:49;;;;;;;;;3.50;3.50;;;;;14.91;56.10;100581.22;6287714;20;2739925;-46
2022/02/09 12:28:22;;;;;;;;;3.00;3.00;;;;;14.69;56.44;100587.13;6291619;20;2750413;-47
2022/02/09 12:31:09;;;;;;;;;5.00;4.00;;;;;15.07;55.48;100581.06;6291999;20;2754420;-46
2022/02/09 12:33:44;;;;;;;;;3.00;3.00;;;;;15.01;55.86;100581.44;6290893;20;2736741;-46
2022/02/09 12:36:20;;;;;;;;;4.50;4.00;;;;;14.97;55.45;100578.09;6291051;20;2756915;-52
2022/02/09 12:38:58;;;;;;;;;7.00;4.00;;;;;14.98;55.28;100577.16;6291104;20;2754462;-48
2022/02/09 12:41:28;;;;;;;;;77.00;65.33;;;;;14.93;55.49;100573.88;6288654;20;3640227;-47
2022/02/09 12:44:02;;;;;;;;;13.00;11.00;;;;;15.19;55.26;100576.66;6288732;20;2796119;-50
2022/02/09 12:46:45;;;;;;;;;7.00;4.00;;;;;15.10;55.66;100575.44;6289386;20;2741935;-47
2022/02/09 12:49:20;;;;;;;;;2.50;2.50;;;;;15.07;55.71;100573.81;6286811;20;2753413;-51
2022/02/09 12:51:51;;;;;;;;;2.00;2.00;;;;;14.86;56.47;100572.53;6290822;20;2752478;-48
2022/02/09 12:54:19;;;;;;;;;4.00;4.00;;;;;15.17;56.02;100570.50;6290834;20;2756628;-48
2022/02/09 12:56:55;;;;;;;;;5.00;5.00;;;;;14.81;56.40;100571.94;6292750;20;2748331;-47
2022/02/09 12:59:23;;;;;;;;;5.50;4.00;;;;;15.13;56.22;100581.50;6290060;20;2756596;-46
2022/02/09 13:01:55;;;;;;;;;3.00;3.00;;;;;15.05;56.29;100575.75;6294036;20;2746149;-47
2022/02/09 13:04:41;;;;;;;;;2.00;2.00;;;;;14.75;56.92;100569.66;6290891;20;2730500;-46
2022/02/09 13:07:18;;;;;;;;;3.00;3.00;;;;;14.88;57.15;100566.06;6292602;20;2731559;-45
2022/02/09 13:09:51;;;;;;;;;4.00;4.00;;;;;14.97;56.97;100569.13;6291564;20;2739864;-47
2022/02/09 13:12:27;;;;;;;;;6.00;5.00;;;;;14.60;57.46;100556.16;6287850;20;2748173;-47
2022/02/09 13:15:08;;;;;;;;;3.00;3.00;;;;;14.83;57.84;100559.22;6288731;20;2738863;-47
2022/02/09 14:13:28;;;;;;;;;7.20;6.00;;;;;14.23;59.32;100571.09;6338461;20;2739866;-44
2022/02/09 14:16:27;;;;;;;;;6.00;6.00;;;;;14.48;58.75;100573.09;6317939;20;2744029;-45
2022/02/09 14:54:06;;;;;;;;;7.75;6.50;;;;;13.36;61.37;100561.97;6305755;20;1805596;-45
2022/02/09 14:57:12;;;;;;;;;12.00;7.00;;;;;13.11;62.13;100564.31;6315344;20;2763783;-46
2022/02/09 15:02:20;;;;;;;;;10.00;7.00;;;;;13.07;62.00;100570.84;6287425;20;2763808;-44
2022/02/09 15:07:42;;;;;;;;;9.25;7.00;;;;;13.09;61.81;100569.81;6303207;20;1836894;-45
2022/02/09 15:10:19;;;;;;;;;11.50;8.50;;;;;13.00;62.22;100572.16;6317623;20;2764863;-47
2022/02/09 15:22:57;;;;;;;;;13.33;13.00;;;;;12.78;63.06;100577.91;6290716;20;3532549;-47
2022/02/09 15:25:31;;;;;;;;;16.00;15.00;;;;;12.80;63.03;100579.56;6318244;20;2500332;-46
2022/02/09 15:28:05;;;;;;;;;14.80;14.80;;;;;12.78;63.00;100576.09;6337149;20;1904452;-44
2022/02/09 15:30:44;;;;;;;;;15.00;12.00;;;;;12.69;63.79;100572.09;6316842;20;3534621;-45
2022/02/09 15:33:20;;;;;;;;;28.33;21.00;;;;;12.61;63.79;100570.75;6317397;20;2848331;-46
2022/02/09 15:35:56;;;;;;;;;16.00;13.00;;;;;12.51;64.03;100579.38;6318300;20;3534602;-44
2022/02/09 15:38:33;;;;;;;;;21.00;15.00;;;;;12.43;63.99;100570.84;6284106;20;2491909;-45
2022/02/09 15:41:15;;;;;;;;;13.00;10.00;;;;;12.53;63.94;100576.56;6288665;20;2784727;-45
2022/02/09 16:06:30;;;;;;;;;10.71;9.71;;;;;11.92;66.13;100588.84;6329513;20;1804427;-54
2022/02/09 16:16:30;;;;;;;;;37.67;29.00;;;;;11.52;67.55;100588.19;6289355;20;3622247;-54
2022/02/09 16:23:12;;;;;;;;;56.67;43.33;;;;;11.06;68.92;100609.31;6318013;20;3621067;-52
2022/02/09 16:34:07;;;;;;;;;44.00;36.67;;;;;11.07;68.81;100594.91;6320429;20;3624295;-44
2022/02/09 16:44:42;;;;;;;;;39.00;30.00;;;;;10.93;69.16;100589.38;6286715;20;3618026;-44
2022/02/09 16:52:37;;;;;;;;;74.67;55.00;;;;;10.62;70.41;100573.84;6286564;20;3638788;-47
2022/02/09 17:19:52;;;;;;;;;89.00;66.00;;;;;8.99;76.19;100603.25;6285468;20;3664912;-44
2022/02/09 17:22:22;;;;;;;;;86.33;64.67;;;;;9.27;74.90;100599.47;6285195;20;3660739;-43
2022/02/09 17:24:52;;;;;;;;;89.67;71.67;;;;;9.02;75.91;100600.44;6281639;20;3663153;-43
2022/02/09 17:27:21;;;;;;;;;86.33;64.00;;;;;9.14;75.12;100596.41;6282413;20;3645016;-44
2022/02/09 17:35:22;;;;;;;;;90.33;69.00;;;;;8.77;76.22;100599.72;6280716;20;3677283;-46
2022/02/09 17:57:28;;;;;;;;;83.00;61.00;;;;;7.87;79.76;100587.88;6282463;20;3648227;-44
2022/02/09 18:00:11;;;;;;;;;85.67;65.00;;;;;7.49;81.12;100590.09;6316518;20;3624227;-43
2022/02/09 18:02:44;;;;;;;;;82.00;62.00;;;;;7.29;81.22;100576.56;6316250;20;3648164;-50
2022/02/09 18:05:42;;;;;;;;;94.33;78.33;;;;;7.28;81.18;100583.69;6312830;20;3673214;-48
2022/02/09 18:30:25;;;;;;;;;91.67;78.00;;;;;6.51;82.85;100590.63;6283029;20;3666895;-44
2022/02/09 18:43:41;;;;;;;;;116.33;95.33;;;;;6.77;83.28;100593.34;6291766;20;3698163;-44
2022/02/09 18:46:29;;;;;;;;;124.00;100.00;;;;;6.45;82.93;100582.78;6294108;20;3709654;-45
2022/02/09 19:05:34;;;;;;;;;119.67;98.33;;;;;6.22;83.56;100583.50;6291726;20;3698179;-44
2022/02/09 19:19:08;;;;;;;;;137.25;115.75;;;;;5.96;83.57;100593.09;6292635;20;4487710;-45
2022/02/09 19:46:14;;;;;;;;;164.50;130.50;;;;;4.65;86.89;100571.53;6285695;20;1963957;-43
2022/02/09 19:49:00;;;;;;;;;153.00;125.40;;;;;4.90;85.27;100581.59;6292772;20;4507579;-43
2022/02/09 19:54:37;;;;;;;;;153.00;126.00;;;;;4.73;85.84;100576.69;6276463;20;1960668;-45
2022/02/09 19:57:05;;;;;;;;;102.33;82.67;;;;;4.75;86.93;100577.53;6285462;20;3690820;-45
2022/02/09 19:59:37;;;;;;;;;116.00;96.67;;;;;5.01;86.61;100575.13;6285591;20;3691877;-43
2022/02/09 20:02:09;;;;;;;;;119.33;92.67;;;;;4.72;86.26;100575.81;6287191;20;3700247;-43
2022/02/09 20:04:39;;;;;;;;;117.00;98.33;;;;;4.54;86.46;100563.81;6285908;20;3684703;-42
2022/02/09 20:07:09;;;;;;;;;124.25;100.50;;;;;4.55;86.07;100570.88;6285125;20;4466910;-45
2022/02/09 20:09:39;;;;;;;;;91.00;71.00;;;;;4.89;87.56;100564.75;6283856;20;3649238;-43
2022/02/09 20:12:09;;;;;;;;;88.33;67.00;;;;;4.83;87.38;100567.59;6283055;20;3635669;-44
2022/02/09 20:14:40;;;;;;;;;97.33;77.00;;;;;4.24;88.07;100569.78;6313833;20;3646480;-45
2022/02/09 20:17:10;;;;;;;;;93.00;69.67;;;;;4.48;88.21;100569.28;6314224;20;3646107;-45
2022/02/09 20:19:42;;;;;;;;;93.33;67.33;;;;;4.47;87.45;100572.81;6283134;20;3665878;-45
2022/02/09 20:22:14;;;;;;;;;86.67;66.00;;;;;4.48;87.11;100574.59;6315470;20;3649603;-45
2022/02/09 20:24:44;;;;;;;;;100.33;70.00;;;;;4.28;87.62;100576.81;6311595;20;3678412;-45
2022/02/09 20:27:20;;;;;;;;;105.00;86.00;;;;;4.24;88.62;100567.13;6279242;20;3701248;-44
2022/02/09 20:29:50;;;;;;;;;114.00;96.00;;;;;4.34;86.63;100571.34;6279425;20;2797169;-44
2022/02/09 20:32:27;;;;;;;;;118.25;103.25;;;;;4.11;87.46;100575.41;6278290;20;3706531;-45
2022/02/09 20:35:01;;;;;;;;;135.75;106.00;;;;;3.96;89.35;100575.69;6308678;20;3722245;-44
2022/02/09 20:37:33;;;;;;;;;136.00;107.00;;;;;4.04;88.42;100572.88;6277906;20;4488769;-44
2022/02/09 20:40:12;;;;;;;;;123.00;101.33;;;;;4.19;88.91;100575.22;6281026;20;3703364;-44
2022/02/09 20:42:53;;;;;;;;;129.25;111.75;;;;;4.00;88.54;100569.41;6280243;20;3715862;-43
2022/02/09 20:48:00;;;;;;;;;182.25;141.50;;;;;4.06;88.32;100560.47;6281090;20;4495032;-44
2022/02/09 20:50:32;;;;;;;;;131.00;105.75;;;;;4.26;87.05;100565.34;6278790;20;4495183;-44
2022/02/09 20:53:02;;;;;;;;;101.00;87.33;;;;;4.00;88.60;100560.56;6278967;20;3695104;-44
2022/02/09 20:55:33;;;;;;;;;111.33;88.00;;;;;3.96;88.02;100557.97;6278174;20;3684761;-44
2022/02/09 20:58:05;;;;;;;;;111.00;91.50;;;;;3.87;88.10;100554.63;6283110;20;3692960;-43
2022/02/09 21:00:49;;;;;;;;;107.00;83.00;;;;;3.88;88.83;100551.94;6281328;20;3684579;-43
2022/02/09 21:09:09;;;;;;;;;115.25;90.25;;;;;3.58;88.19;100542.81;6282016;20;3711919;-43
2022/02/09 21:20:30;;;;;;;;;98.00;74.67;;;;;3.04;88.02;100546.41;6315116;20;3655423;-45
2022/02/09 21:41:37;;;;;;;;;103.67;75.00;;;;;2.41;88.76;100539.44;6277612;20;3672143;-43
2022/02/09 21:43:05;;;;;;;;;95.33;72.00;;;;;2.79;87.83;100548.63;6311766;20;3652345;-44
2022/02/09 21:52:04;;;;;;;;;98.33;73.67;;;;;2.97;89.53;100549.19;6278270;20;3643036;-45
2022/02/09 22:01:38;;;;;;;;;107.33;87.67;;;;;2.46;89.15;100536.72;6281140;20;3691997;-43
2022/02/09 22:50:56;;;;;;;;;97.33;67.33;;;;;2.19;89.18;100511.53;6280217;20;3664840;-44
2022/02/09 22:56:16;;;;;;;;;87.67;67.00;;;;;1.75;90.88;100518.25;6310819;20;3636698;-45
2022/02/09 22:58:46;;;;;;;;;85.33;66.00;;;;;2.14;90.45;100513.34;6311442;20;3646059;-45
2022/02/09 23:01:23;;;;;;;;;100.33;74.33;;;;;2.02;90.45;100517.03;6310034;20;3664786;-47
2022/02/09 23:04:21;;;;;;;;;100.33;77.67;;;;;2.11;90.75;100513.41;6310849;20;3663961;-45
2022/02/09 23:07:08;;;;;;;;;97.67;74.33;;;;;2.27;89.64;100517.59;6311721;20;3663853;-47
